Time;durP1;ratioP1;P1;durP2;ratioP2;P2;SDS_P1;SDS_P2;PMS_P1;PMS_P2;Temp;Humidity;BMP_temperature;BMP_pressure;BME280_temperature;BME280_humidity;BME280_pressure;Samples;Min_cycle;Max_cycle;Signal;HPM_P1;HPM_P2
2021/04/06 04:47:11;;;;;;;14.80;4.30;;;0.30;99.90;;;-143.32;100.00;51437.81;5175596;23;20500;-93
2021/04/06 05:14:28;;;;;;;8.97;2.83;;;0.10;99.90;;;-143.32;100.00;50531.59;5009222;28;20475;-89
2021/04/06 05:16:59;;;;;;;10.60;2.80;;;0.10;99.90;;;-143.32;100.00;50473.06;5007934;28;20408;-89
2021/04/06 05:19:38;;;;;;;13.83;3.30;;;0.10;99.90;;;-143.32;100.00;50434.72;5002850;28;20450;-90
2021/04/06 05:22:16;;;;;;;12.47;3.00;;;0.10;99.90;;;-143.32;100.00;50430.69;5001375;28;20431;-91
2021/04/06 05:24:45;;;;;;;12.57;4.97;;;0.10;99.90;;;-143.32;100.00;50358.03;4995793;28;20502;-91
2021/04/06 06:29:19;;;;;;;23.23;6.50;;;0.70;99.90;;;-143.32;100.00;50628.47;4996104;28;20445;-93
2021/04/06 07:00:46;;;;;;;18.27;7.80;;;0.90;99.90;;;-143.32;100.00;50983.66;5044902;23;20493;-92
2021/04/06 07:03:18;;;;;;;25.20;8.17;;;0.90;99.90;;;-143.32;100.00;50989.72;5038206;28;20876;-93
2021/04/06 07:05:45;;;;;;;34.27;6.67;;;0.80;99.90;;;-143.32;100.00;50981.63;5040748;28;20457;-92
2021/04/06 07:08:15;;;;;;;27.83;9.40;;;1.10;99.90;;;-143.32;100.00;50915.03;5049490;28;20425;-92
2021/04/06 07:10:45;;;;;;;27.93;10.13;;;1.10;99.90;;;-143.32;100.00;50975.59;5033997;28;21037;-90
2021/04/06 07:13:20;;;;;;;34.60;12.10;;;1.00;99.90;;;-143.32;100.00;51046.22;5033446;28;20497;-88
2021/04/06 07:15:50;;;;;;;29.17;11.17;;;1.20;99.90;;;-143.32;100.00;51112.81;5033461;28;20439;-89
2021/04/06 07:18:20;;;;;;;37.80;11.30;;;1.20;99.90;;;-143.32;100.00;51131.00;5034462;28;20448;-89
2021/04/06 07:20:53;;;;;;;32.07;12.40;;;1.30;99.90;;;-143.32;100.00;51024.03;5033345;28;20435;-90
2021/04/06 07:23:34;;;;;;;36.80;14.00;;;1.70;99.90;;;-143.32;100.00;51058.34;5033683;28;20414;-89
2021/04/06 07:26:05;;;;;;;40.23;13.10;;;2.20;99.90;;;-143.32;100.00;51534.69;5033171;28;20491;-91
2021/04/06 07:28:32;;;;;;;45.30;11.73;;;2.50;99.90;;;-143.32;100.00;52459.34;5033299;28;20445;-90
2021/04/06 07:31:03;;;;;;;22.60;9.83;;;2.50;99.90;;;-143.32;100.00;52836.94;5033510;28;20531;-93
2021/04/06 07:33:40;;;;;;;20.77;8.40;;;2.70;99.90;;;-143.32;100.00;53002.53;5044799;28;20467;-93
2021/04/06 07:39:18;;;;;;;28.00;7.37;;;3.10;99.90;;;-143.32;100.00;53640.75;5087054;22;20557;-91
2021/04/06 07:41:47;;;;;;;30.07;7.00;;;3.20;99.90;;;-143.32;100.00;53768.00;5023372;28;20808;-90
2021/04/06 07:44:16;;;;;;;30.50;6.43;;;3.50;99.90;;;-143.32;100.00;53992.22;5016616;28;20454;-91
2021/04/06 07:46:46;;;;;;;16.27;5.57;;;3.70;99.90;;;-143.32;100.00;54188.19;5016690;28;20449;-91
2021/04/06 07:49:47;;;;;;;28.67;6.87;;;3.50;99.90;;;-143.32;100.00;54170.00;5025942;28;20518;-93
2021/04/06 07:52:20;;;;;;;15.77;5.57;;;3.60;99.90;;;-143.32;100.00;54285.16;5028025;28;20572;-89
2021/04/06 07:54:49;;;;;;;18.90;5.27;;;3.70;99.90;;;-143.32;100.00;54339.69;5016984;28;20449;-88
2021/04/06 07:57:16;;;;;;;19.70;5.77;;;3.60;99.90;;;-143.32;100.00;54428.59;5017957;28;20450;-91
2021/04/06 07:59:56;;;;;;;20.80;5.90;;;3.60;99.90;;;-143.32;100.00;54388.19;5017849;28;20449;-91
2021/04/06 08:02:33;;;;;;;18.20;5.63;;;3.60;99.90;;;-143.32;100.00;54430.63;5017573;28;20435;-91
2021/04/06 08:05:06;;;;;;;12.50;4.53;;;3.80;99.90;;;-143.32;100.00;54531.63;5017233;28;20457;-91
2021/04/06 08:07:35;;;;;;;22.77;6.63;;;3.80;99.90;;;-143.32;100.00;54584.16;5016748;28;20453;-92
2021/04/06 08:10:43;;;;;;;23.00;5.07;;;3.70;99.90;;;-143.32;100.00;54572.03;5016258;28;20497;-90
2021/04/06 08:16:50;;;;;;;23.77;5.13;;;3.80;99.90;;;-143.32;100.00;54561.94;5016158;28;20441;-88
2021/04/06 08:19:30;;;;;;;14.97;4.10;;;4.00;99.90;;;-143.32;100.00;54594.25;5016063;28;20525;-89
2021/04/06 08:22:20;;;;;;;22.80;4.53;;;4.20;99.90;;;-143.32;100.00;54786.22;5016779;28;20478;-90
2021/04/06 08:24:47;;;;;;;21.00;3.90;;;4.00;99.90;;;-143.32;100.00;54774.09;5016558;28;20504;-90
2021/04/06 08:27:33;;;;;;;21.50;4.30;;;4.10;99.90;;;-143.32;100.00;54792.28;5016436;28;20466;-90
2021/04/06 08:30:25;;;;;;;13.40;3.37;;;4.20;99.90;;;-143.32;100.00;54798.34;5016088;28;20445;-92
2021/04/06 08:33:26;;;;;;;20.30;3.90;;;4.20;99.90;;;-143.32;100.00;54786.22;5016396;28;20434;-92
2021/04/06 08:36:04;;;;;;;15.90;4.53;;;4.30;99.90;;;-143.32;100.00;54818.53;5017103;28;21009;-91
2021/04/06 08:38:47;;;;;;;18.13;3.70;;;4.60;99.90;;;-143.32;100.00;54846.81;5015897;28;20576;-90
2021/04/06 08:41:31;;;;;;;14.53;4.50;;;5.10;99.90;;;-143.32;100.00;54970.09;5017176;28;20464;-92
2021/04/06 08:44:00;;;;;;;13.83;4.30;;;5.30;1.00;;;-143.32;100.00;54935.72;5016255;28;20764;-88
2021/04/06 08:46:43;;;;;;;15.87;3.20;;;5.60;99.90;;;-143.32;100.00;55028.69;5015763;28;20960;-90
2021/04/06 08:49:20;;;;;;;10.67;3.17;;;5.40;99.90;;;-143.32;100.00;55024.66;5017123;28;20456;-90
2021/04/06 08:51:51;;;;;;;18.00;4.70;;;5.10;77.80;;;-143.32;100.00;55071.13;5016256;28;20508;-90
2021/04/06 08:54:23;;;;;;;13.90;3.30;;;4.70;1.00;;;-143.32;100.00;55093.34;5015880;28;20905;-89
2021/04/06 08:56:56;;;;;;;18.90;4.23;;;4.20;99.90;;;-143.32;100.00;55085.25;5015788;28;20465;-90
2021/04/06 08:59:32;;;;;;;25.77;3.83;;;3.40;1.00;;;-143.32;100.00;54968.06;5015720;28;20481;-90
2021/04/06 09:02:00;;;;;;;24.50;5.33;;;2.80;1.00;;;-143.32;100.00;54804.41;5015727;28;20835;-88
2021/04/06 09:04:29;;;;;;;13.23;4.23;;;2.70;99.90;;;-143.32;100.00;54671.03;5015926;28;20446;-89
2021/04/06 09:06:57;;;;;;;32.17;5.10;;;2.90;99.90;;;-143.32;100.00;54529.63;5015636;28;20937;-90
2021/04/06 09:09:27;;;;;;;20.63;4.57;;;3.30;99.90;;;-143.32;100.00;54505.38;5015593;28;20516;-91
2021/04/06 09:11:56;;;;;;;13.80;4.73;;;3.80;99.90;;;-143.32;100.00;54570.03;5015945;28;20478;-88
2021/04/06 09:14:25;;;;;;;10.03;3.53;;;4.40;99.90;;;-143.32;100.00;54685.19;5015745;28;20446;-90
2021/04/06 09:17:05;;;;;;;15.93;4.30;;;4.80;99.90;;;-143.32;100.00;54854.91;5016052;28;20430;-91
2021/04/06 09:19:38;;;;;;;10.33;3.67;;;5.00;1.00;;;-143.32;100.00;54875.13;5017606;28;20446;-89
2021/04/06 09:22:14;;;;;;;20.20;3.23;;;5.00;99.90;;;-143.32;99.99;55099.41;5015583;28;20460;-90
2021/04/06 09:24:55;;;;;;;16.97;3.50;;;4.70;1.00;;;-143.32;100.00;55026.66;5015308;28;20461;-90
2021/04/06 09:27:36;;;;;;;15.90;3.10;;;4.70;99.90;;;-143.32;100.00;55075.16;5015564;28;20429;-90
2021/04/06 09:30:15;;;;;;;7.43;2.57;;;4.70;3.30;;;-143.32;100.00;55073.13;5015478;28;20449;-92
2021/04/06 09:33:18;;;;;;;;;;;;;;;;;;;;;
2021/04/06 09:40:00;;;;;;;;;;;;;;;;;;;;;
2021/04/06 09:51:07;;;;;;;10.60;2.93;;;4.50;99.90;;;-143.32;97.68;55236.81;4879461;29;20449;-91
2021/04/06 09:57:44;;;;;;;13.30;3.10;;;4.40;16.50;;;-143.32;96.98;55263.09;4954280;29;20413;-90
2021/04/06 10:00:17;;;;;;;14.83;2.97;;;4.40;99.90;;;-143.32;96.14;55297.44;4962532;29;20445;-91
2021/04/06 10:03:12;;;;;;;9.83;3.30;;;4.60;99.90;;;-143.32;94.58;55317.66;4969174;29;20465;-93
2021/04/06 10:05:57;;;;;;;9.27;2.20;;;4.70;99.90;;;-143.32;94.26;55307.56;4969415;28;20453;-93
2021/04/06 10:08:42;;;;;;;8.73;2.60;;;4.90;33.30;;;-143.32;91.59;55321.69;5032837;28;20528;-93
2021/04/06 10:11:23;;;;;;;7.60;2.50;;;5.20;1.00;;;-143.32;90.60;55376.25;5029363;28;20477;-94
2021/04/06 10:14:52;;;;;;;5.90;2.30;;;5.10;1.00;;;-143.32;91.25;55390.41;5028948;28;20454;-92
2021/04/06 10:17:37;;;;;;;5.70;2.43;;;4.80;1.00;;;-143.32;91.38;55392.44;5016184;28;20932;-93
2021/04/06 10:27:30;;;;;;;6.40;2.50;;;5.00;99.90;;;-143.32;87.26;55455.06;5027783;28;20927;-94
2021/04/06 10:30:26;;;;;;;5.73;2.30;;;5.40;1.00;;;-143.32;84.64;55497.53;5020173;28;20516;-92
2021/04/06 10:33:09;;;;;;;5.93;2.20;;;5.70;99.90;;;-143.32;82.75;55513.69;5016237;28;20477;-92
2021/04/06 10:35:39;;;;;;;9.97;2.90;;;5.40;99.90;;;-143.32;86.09;55487.41;5017247;28;20786;-90
2021/04/06 10:38:19;;;;;;;2.80;1.60;;;5.30;99.90;;;-143.32;85.90;55515.72;5015501;28;20796;-90
2021/04/06 10:40:47;;;;;;;6.23;2.33;;;5.20;99.90;;;-143.32;86.04;55525.81;5014887;28;20457;-92
2021/04/06 10:43:18;;;;;;;5.23;2.57;;;5.10;99.90;;;-143.32;85.70;55529.84;5015166;28;20442;-91
2021/04/06 10:45:51;;;;;;;5.50;2.00;;;5.00;99.90;;;-143.32;87.21;55517.72;5014460;28;20465;-90
2021/04/06 10:48:22;;;;;;;7.87;2.30;;;5.00;1.00;;;-143.32;86.75;55529.84;5014637;28;20441;-92
2021/04/06 10:50:54;;;;;;;5.93;2.50;;;5.40;1.00;;;-143.32;87.96;55451.03;5013818;28;20461;-89
2021/04/06 10:53:27;;;;;;;7.33;2.20;;;5.60;1.00;;;-143.32;84.75;55459.13;5013884;28;20438;-88
2021/04/06 10:56:13;;;;;;;5.00;2.17;;;5.90;99.90;;;-143.32;79.84;55533.91;5016977;28;20414;-92
2021/04/06 10:58:51;;;;;;;9.67;2.50;;;6.10;99.90;;;-143.32;78.83;55550.06;5019924;28;20503;-94
2021/04/06 11:01:22;;;;;;;7.40;2.40;;;6.30;99.90;;;-143.32;77.37;55588.47;5027608;28;20518;-92
2021/04/06 11:03:53;;;;;;;9.53;1.93;;;6.20;99.90;;;-143.32;76.92;55610.69;5028151;28;20439;-91
2021/04/06 11:06:37;;;;;;;7.90;2.33;;;5.80;99.90;;;-143.32;80.06;55580.38;5029642;28;20488;-92
2021/04/06 11:09:13;;;;;;;8.10;2.27;;;5.60;99.90;;;-143.32;78.74;55588.47;5030255;28;20407;-94
2021/04/06 11:11:43;;;;;;;5.47;2.10;;;5.80;99.90;;;-143.32;78.45;55606.66;5016967;28;20812;-86
2021/04/06 11:14:16;;;;;;;10.90;2.20;;;5.90;99.90;;;-143.32;76.41;55614.75;5013450;28;20553;-88
2021/04/06 11:16:44;;;;;;;9.23;2.70;;;6.20;99.90;;;-143.32;76.06;55560.16;5014196;28;20504;-88
2021/04/06 11:19:13;;;;;;;6.00;2.23;;;6.40;99.90;;;-143.32;71.67;55689.50;5016712;28;20539;-87
2021/04/06 11:21:42;;;;;;;8.07;2.30;;;6.60;99.90;;;-143.32;72.80;55679.41;5017152;28;20472;-90
2021/04/06 11:24:10;;;;;;;4.33;1.90;;;6.80;99.90;;;-143.32;71.92;55671.31;5017382;28;20453;-89
2021/04/06 11:26:38;;;;;;;7.50;1.73;;;7.00;99.90;;;-143.32;68.28;55701.66;5017278;28;20840;-86
2021/04/06 11:29:11;;;;;;;10.73;2.20;;;7.00;99.90;;;-143.32;70.92;55740.03;5017023;28;20456;-89
2021/04/06 11:31:40;;;;;;;10.57;2.50;;;6.50;99.90;;;-143.32;72.23;55758.22;5017250;28;20786;-88
2021/04/06 11:34:09;;;;;;;4.63;2.03;;;6.10;99.90;;;-143.32;73.55;55756.22;5017281;28;20461;-87
2021/04/06 11:36:36;;;;;;;9.73;2.30;;;5.70;99.90;;;-143.32;83.39;55685.47;5016900;28;20458;-88
2021/04/06 11:39:08;;;;;;;3.47;2.00;;;5.20;99.90;;;-143.32;90.40;55622.81;5016773;28;20478;-86
2021/04/06 11:41:35;;;;;;;8.27;2.03;;;4.70;1.00;;;-143.32;88.55;55626.88;5017552;28;20475;-88
2021/04/06 11:44:04;;;;;;;8.67;2.40;;;4.30;1.00;;;-143.32;89.52;55655.16;5016637;28;20557;-86
2021/04/06 11:46:31;;;;;;;20.53;2.20;;;4.40;1.00;;;-143.32;87.03;55632.94;5018690;28;20456;-87
2021/04/06 11:48:58;;;;;;;6.33;2.00;;;4.60;1.00;;;-143.32;84.74;55681.44;5019093;28;20446;-88
2021/04/06 11:51:25;;;;;;;4.53;1.67;;;4.60;99.90;;;-143.32;85.95;55647.06;5016683;28;20547;-90
2021/04/06 12:04:54;;;;;;;2.67;2.03;;;5.20;1.00;;;-143.32;87.88;55608.69;5016592;28;20807;-90
2021/04/06 12:07:24;;;;;;;10.10;2.20;;;5.20;1.00;;;-143.32;89.28;55558.16;5018488;28;20451;-91
2021/04/06 12:09:51;;;;;;;8.70;2.63;;;5.30;1.00;;;-143.32;87.99;55596.56;5019665;28;20496;-92
2021/04/06 12:12:18;;;;;;;8.70;1.93;;;5.40;1.00;;;-143.32;85.37;55693.56;5017834;28;20477;-89
2021/04/06 12:14:45;;;;;;;12.77;6.40;;;5.30;99.90;;;-143.32;85.57;55606.66;5016632;28;20434;-91
2021/04/06 12:17:11;;;;;;;5.13;1.87;;;5.40;99.90;;;-143.32;85.42;55643.03;5016732;28;20477;-90
2021/04/06 12:19:38;;;;;;;4.40;1.77;;;5.40;99.90;;;-143.32;83.57;55628.88;5019216;28;20514;-91
2021/04/06 12:22:08;;;;;;;3.77;1.70;;;5.40;99.90;;;-143.32;82.62;55622.81;5020397;28;20446;-91
2021/04/06 12:24:36;;;;;;;3.17;1.87;;;5.40;99.90;;;-143.32;81.29;55681.44;5019775;28;20431;-91
2021/04/06 12:27:03;;;;;;;7.70;2.33;;;5.20;99.90;;;-143.32;80.64;55689.50;5020652;28;20446;-94
2021/04/06 12:29:30;;;;;;;4.30;2.20;;;5.30;99.90;;;-143.32;80.62;55677.38;5023210;28;21062;-93
2021/04/06 12:32:00;;;;;;;8.33;2.23;;;5.40;99.90;;;-143.32;81.09;55661.22;5022038;28;20494;-89
2021/04/06 12:34:26;;;;;;;6.73;2.47;;;5.50;99.90;;;-143.32;81.78;55669.31;5016084;28;20450;-91
2021/04/06 12:36:53;;;;;;;4.50;2.20;;;5.50;99.90;;;-143.32;81.13;55679.41;5016583;28;20450;-90
2021/04/06 12:39:20;;;;;;;5.43;2.00;;;5.50;99.90;;;-143.32;81.10;55667.28;5016717;28;20450;-90
2021/04/06 12:41:47;;;;;;;12.70;2.43;;;5.70;99.90;;;-143.32;83.34;55610.69;5016003;28;20516;-89
2021/04/06 12:47:55;;;;;;;2.77;1.70;;;5.50;99.90;;;-143.32;88.20;55636.97;5015993;28;20449;-92
2021/04/06 12:50:23;;;;;;;2.70;1.80;;;5.30;1.00;;;-143.32;89.72;55602.59;5016975;28;20947;-90
2021/04/06 12:52:49;;;;;;;5.50;1.60;;;5.10;1.00;;;-143.32;91.18;55618.78;5016196;28;20577;-91
2021/04/06 12:55:16;;;;;;;9.47;2.93;;;4.80;1.00;;;-143.32;94.44;55616.75;5017850;28;20511;-91
2021/04/06 12:57:44;;;;;;;2.37;1.67;;;4.20;99.90;;;-143.32;96.30;55604.63;5016818;28;20474;-94
2021/04/06 13:00:27;;;;;;;5.90;2.03;;;4.20;1.00;;;-143.32;96.12;55616.75;5023714;28;20450;-94
2021/04/06 13:05:31;;;;;;;5.30;2.13;;;4.40;1.00;;;-143.32;96.32;55594.53;5752901;23;20464;-92
2021/04/06 13:07:58;;;;;;;9.30;2.83;;;4.40;1.00;;;-143.32;97.06;55509.66;5030049;28;20484;-92
2021/04/06 13:10:29;;;;;;;14.03;2.43;;;4.40;1.00;;;-143.32;96.71;55576.34;5113127;22;20501;-93
2021/04/06 13:12:58;;;;;;;62.33;27.90;;;4.60;1.00;;;-143.32;95.47;55525.81;5003369;28;20483;-91
2021/04/06 13:15:24;;;;;;;3.90;2.50;;;4.70;99.90;;;-143.32;94.51;55572.28;4997257;28;20836;-87
2021/04/06 13:17:51;;;;;;;5.30;3.03;;;4.90;99.90;;;-143.32;92.60;55558.16;4995319;28;20509;-89
2021/04/06 13:20:18;;;;;;;10.90;3.20;;;5.00;1.00;;;-143.32;91.15;55578.34;4990403;28;20447;-86
2021/04/06 13:22:45;;;;;;;5.00;2.40;;;5.10;1.00;;;-143.32;88.39;55616.75;4995300;28;20454;-90
2021/04/06 13:25:13;;;;;;;3.53;2.30;;;5.30;1.00;;;-143.32;86.57;55622.81;4995156;28;20443;-89
2021/04/06 13:27:44;;;;;;;6.17;3.50;;;5.40;99.90;;;-143.32;86.37;55636.97;5002695;28;20517;-94
2021/04/06 13:30:16;;;;;;;6.17;2.53;;;5.40;99.90;;;-143.32;86.84;55590.47;5001292;28;20450;-94
2021/04/06 13:32:43;;;;;;;7.80;2.77;;;5.50;99.90;;;-143.32;85.85;55647.06;4999107;28;20926;-93
2021/04/06 13:35:13;;;;;;;7.77;3.13;;;5.30;99.90;;;-143.32;90.57;55606.66;5001699;28;20443;-94
2021/04/06 13:37:42;;;;;;;9.13;2.30;;;5.10;1.00;;;-143.32;94.50;55606.66;5121579;22;20496;-93
2021/04/06 13:40:20;;;;;;;7.63;2.90;;;4.80;99.90;;;-143.32;99.47;55548.03;5024262;28;20450;-94
2021/04/06 13:42:47;;;;;;;5.57;2.53;;;4.10;1.00;;;-143.32;100.00;55513.69;5024594;28;20449;-90
2021/04/06 13:45:18;;;;;;;8.87;4.50;;;3.80;99.90;;;-143.32;100.00;55457.09;5015365;28;20446;-90
2021/04/06 13:47:45;;;;;;;4.60;2.17;;;3.80;99.90;;;-143.32;100.00;55394.44;5015396;28;20438;-90
2021/04/06 13:50:14;;;;;;;2.40;2.03;;;4.00;99.90;;;-143.32;100.00;55471.25;5015083;28;20450;-90
2021/04/06 13:52:42;;;;;;;2.27;1.93;;;4.00;1.00;;;-143.32;99.23;55513.69;5014747;28;20552;-92
2021/04/06 13:55:11;;;;;;;3.20;1.80;;;4.00;1.00;;;-143.32;99.46;55497.53;5015590;28;20453;-93
2021/04/06 13:57:38;;;;;;;6.63;1.80;;;3.90;99.90;;;-143.32;99.62;55501.56;5014578;28;20446;-89
2021/04/06 14:00:11;;;;;;;1.90;1.40;;;4.00;99.90;;;-143.32;98.28;55509.66;5015277;28;20442;-89
2021/04/06 14:02:41;;;;;;;3.63;1.87;;;3.90;99.90;;;-143.32;100.00;55485.41;5014345;28;20421;-89
2021/04/06 14:05:09;;;;;;;2.27;1.83;;;3.90;1.00;;;-143.32;100.00;55521.78;5014242;28;20450;-87
2021/04/06 14:07:37;;;;;;;2.43;1.60;;;4.00;99.90;;;-143.32;99.57;55503.59;5014562;28;20484;-89
2021/04/06 14:10:07;;;;;;;1.50;1.40;;;4.10;92.40;;;-143.32;99.15;55527.84;5014141;28;20465;-90
2021/04/06 14:12:34;;;;;;;2.50;1.53;;;4.20;1.00;;;-143.32;97.58;55529.84;4996785;28;20474;-87
2021/04/06 14:15:01;;;;;;;3.93;2.93;;;4.20;1.00;;;-143.32;98.02;55511.66;5013740;28;20454;-86
2021/04/06 14:17:27;;;;;;;2.90;1.70;;;4.20;91.90;;;-143.32;98.04;55517.72;5014086;28;20821;-87
2021/04/06 14:19:55;;;;;;;3.73;2.00;;;4.30;99.90;;;-143.32;97.10;55525.81;5014147;28;20492;-88
2021/04/06 14:22:21;;;;;;;2.20;1.30;;;4.30;1.00;;;-143.32;97.83;55507.63;5012647;28;20512;-87
2021/04/06 14:24:48;;;;;;;7.10;2.20;;;4.50;60.00;;;-143.32;97.51;55511.66;5026589;28;20935;-87
2021/04/06 14:27:18;;;;;;;3.93;1.90;;;4.70;1.00;;;-143.32;96.96;55487.41;5034073;28;20449;-89
2021/04/06 14:29:45;;;;;;;4.30;1.97;;;4.60;1.00;;;-143.32;96.37;55539.97;4994109;28;20432;-88
2021/04/06 14:32:21;;;;;;;3.60;2.10;;;4.60;99.90;;;-143.32;96.15;55493.47;4996306;28;20491;-92
2021/04/06 14:34:49;;;;;;;2.77;1.80;;;4.40;99.90;;;-143.32;96.38;55548.03;5000235;28;20477;-94
2021/04/06 14:37:22;;;;;;;6.07;2.07;;;4.30;99.90;;;-143.32;94.56;55582.41;4999233;28;20439;-92
2021/04/06 14:39:48;;;;;;;3.23;1.77;;;4.40;99.90;;;-143.32;95.70;55608.69;4999379;28;20833;-90
2021/04/06 14:42:24;;;;;;;3.70;1.63;;;3.80;99.90;;;-143.32;96.75;55548.03;4997013;28;20466;-93
2021/04/06 15:32:42;;;;;;;5.60;2.10;;;3.60;97.30;;;-143.32;100.00;55384.34;5020120;28;20518;-94
2021/04/06 15:35:13;;;;;;;7.50;2.30;;;3.30;99.90;;;-143.32;100.00;55388.38;5020201;28;20465;-92
2021/04/06 15:37:44;;;;;;;5.33;2.40;;;3.00;1.00;;;-143.32;100.00;55430.81;5022209;28;20991;-92
2021/04/06 15:43:52;;;;;;;6.47;2.80;;;3.00;1.00;;;-143.32;100.00;55337.88;5019675;28;20404;-94
2021/04/06 15:46:18;;;;;;;7.47;2.30;;;3.10;99.90;;;-143.32;100.00;55350.00;5017619;28;20491;-88
2021/04/06 15:49:05;;;;;;;12.20;2.57;;;3.20;99.90;;;-143.32;100.00;55396.47;5016732;28;20944;-90
2021/04/06 15:51:34;;;;;;;13.57;2.50;;;3.20;99.90;;;-143.32;100.00;55386.38;5017210;28;20830;-91
2021/04/06 15:54:00;;;;;;;4.47;2.20;;;3.10;1.00;;;-143.32;100.00;55380.31;5008128;28;20486;-91
2021/04/06 15:56:27;;;;;;;7.30;2.50;;;3.00;1.00;;;-143.32;100.00;55364.13;4997505;28;20467;-87
2021/04/06 15:58:54;;;;;;;8.20;2.50;;;3.00;99.90;;;-143.32;100.00;55402.53;5016623;28;20523;-88
2021/04/06 16:01:22;;;;;;;12.60;2.50;;;3.00;1.00;;;-143.32;100.00;55390.41;5016759;28;20512;-89
2021/04/06 16:03:49;;;;;;;5.90;2.70;;;3.00;99.90;;;-143.32;100.00;55406.56;5015697;28;20456;-87
2021/04/06 16:06:20;;;;;;;8.07;2.50;;;3.10;99.90;;;-143.32;100.00;55384.34;5016438;28;20446;-85
2021/04/06 16:08:48;;;;;;;6.77;2.43;;;3.10;99.90;;;-143.32;100.00;55394.44;5012403;28;20457;-87
2021/04/06 16:11:17;;;;;;;6.20;2.40;;;3.10;1.00;;;-143.32;100.00;55390.41;5016123;28;20450;-87
2021/04/06 16:14:06;;;;;;;11.47;3.23;;;3.20;1.00;;;-143.32;100.00;55426.78;5016535;28;20453;-88
2021/04/06 16:16:32;;;;;;;7.60;2.70;;;3.20;1.00;;;-143.32;100.00;55430.81;5016133;28;20525;-88
2021/04/06 16:18:59;;;;;;;7.20;2.70;;;2.90;99.90;;;-143.32;100.00;55422.75;5016482;28;20446;-91
2021/04/06 16:21:26;;;;;;;4.90;3.13;;;2.60;99.90;;;-143.32;100.00;55388.38;5017016;28;20438;-88
2021/04/06 16:24:01;;;;;;;7.63;2.77;;;2.50;1.00;;;-143.32;100.00;55321.69;5006323;28;20455;-88
2021/04/06 16:26:28;;;;;;;5.50;2.70;;;2.50;99.90;;;-143.32;100.00;55281.28;5015425;28;20520;-86
2021/04/06 16:29:06;;;;;;;10.87;4.20;;;2.50;99.90;;;-143.32;100.00;55222.69;5015934;28;20454;-88
2021/04/06 16:31:36;;;;;;;4.60;3.00;;;2.50;99.90;;;-143.32;100.00;55216.63;5003647;28;20483;-91
2021/04/06 16:34:16;;;;;;;7.53;3.40;;;2.50;99.90;;;-143.32;100.00;55125.69;4996977;28;20461;-93
2021/04/06 16:36:57;;;;;;;5.80;3.40;;;2.60;99.90;;;-143.32;100.00;55056.97;4997466;28;20810;-91
2021/04/06 16:39:59;;;;;;;7.10;3.67;;;2.70;99.90;;;-143.32;100.00;55061.00;4997227;28;20579;-91
2021/04/06 16:43:35;;;;;;;7.53;3.80;;;2.70;99.90;;;-143.32;100.00;55063.03;4995588;28;20502;-91
2021/04/06 16:54:46;;;;;;;5.27;2.80;;;2.50;99.90;;;-143.32;100.00;55028.69;4898666;29;20982;-93
2021/04/06 17:12:28;;;;;;;5.67;3.13;;;2.50;99.90;;;-143.32;100.00;55117.59;4796896;29;20907;-91
2021/04/06 17:14:57;;;;;;;8.90;3.90;;;2.30;99.90;;;-143.32;100.00;55151.94;4955591;28;20454;-91
2021/04/06 17:17:23;;;;;;;8.37;3.30;;;2.00;99.90;;;-143.32;100.00;55119.63;4995606;28;20451;-90
2021/04/06 17:19:51;;;;;;;5.10;2.40;;;1.80;99.90;;;-143.32;100.00;55093.34;4996145;28;20435;-92
2021/04/06 17:22:20;;;;;;;7.47;2.63;;;1.70;99.90;;;-143.32;100.00;55095.38;4996797;28;20443;-90
2021/04/06 17:25:05;;;;;;;8.60;3.07;;;1.30;99.90;;;-143.32;100.00;55038.78;5012401;28;20455;-93
2021/04/06 17:27:40;;;;;;;8.17;2.40;;;1.30;99.90;;;-143.32;100.00;54955.94;5012307;28;20420;-91
2021/04/06 17:30:28;;;;;;;8.43;2.83;;;1.10;99.90;;;-143.32;100.00;54881.19;5013027;28;20439;-93
2021/04/06 17:33:08;;;;;;;9.00;2.90;;;1.00;99.90;;;-143.32;100.00;54774.09;4998291;28;20506;-92
2021/04/06 17:35:42;;;;;;;12.30;3.30;;;1.10;99.90;;;-143.32;100.00;54717.50;5000496;28;20439;-93
2021/04/06 17:38:22;;;;;;;10.27;3.63;;;1.20;99.90;;;-143.32;100.00;54626.59;4998001;28;20447;-92
2021/04/06 17:40:59;;;;;;;5.80;3.70;;;1.30;99.90;;;-143.32;100.00;54574.06;4997106;28;20546;-92
2021/04/06 19:37:14;;;;;;;12.93;3.60;;;0.80;99.90;;;-143.32;100.00;54475.06;5772053;23;20496;-90
2021/04/06 20:20:49;;;;;;;9.57;3.10;;;0.70;99.90;;;-143.32;100.00;54212.44;5017413;28;20406;-89
2021/04/06 20:23:21;;;;;;;11.40;2.97;;;0.70;99.90;;;-143.32;100.00;54176.06;5020027;28;20460;-93
2021/04/06 20:25:53;;;;;;;10.43;3.47;;;0.80;99.90;;;-143.32;100.00;54200.31;5017081;28;20418;-91
2021/04/06 20:43:03;;;;;;;15.23;4.10;;;0.80;99.90;;;-143.32;100.00;54269.00;4997388;28;20407;-89
2021/04/06 20:45:32;;;;;;;11.63;3.80;;;0.60;99.90;;;-143.32;100.00;54256.88;4997710;28;20419;-93
2021/04/06 20:50:34;;;;;;;19.47;3.60;;;0.50;99.90;;;-143.32;100.00;54246.78;5310285;23;20492;-91
2021/04/06 20:55:37;;;;;;;8.07;3.50;;;0.60;99.90;;;-143.32;100.00;54186.16;5627341;23;20498;-92
2021/04/06 20:58:07;;;;;;;7.83;3.70;;;0.60;99.90;;;-143.32;100.00;54174.03;4998432;28;20459;-91
2021/04/06 21:03:12;;;;;;;9.13;3.17;;;0.70;99.90;;;-143.32;100.00;54248.78;4976296;28;20484;-91
2021/04/06 21:05:40;;;;;;;9.93;2.80;;;0.60;99.90;;;-143.32;100.00;54230.59;4978352;28;20567;-89
2021/04/06 21:08:09;;;;;;;5.97;2.80;;;0.50;99.90;;;-143.32;100.00;54281.13;4977860;28;20455;-92
2021/04/06 21:15:46;;;;;;;3.97;2.57;;;0.50;99.90;;;-143.32;100.00;54238.69;4974871;28;20479;-90
2021/04/06 21:20:49;;;;;;;9.00;2.40;;;0.50;99.90;;;-143.32;100.00;54317.47;5998137;23;20377;-90
2021/04/06 21:23:17;;;;;;;5.23;2.27;;;0.50;99.90;;;-143.32;100.00;54315.47;5015364;28;20951;-89
2021/04/06 21:25:49;;;;;;;6.60;2.60;;;0.40;99.90;;;-143.32;100.00;54283.13;5015450;28;20437;-91
2021/04/06 21:28:31;;;;;;;13.30;2.60;;;0.50;99.90;;;-143.32;100.00;54246.78;5518411;22;20543;-88
2021/04/06 21:31:00;;;;;;;3.57;2.20;;;0.60;99.90;;;-143.32;100.00;54283.13;5015667;28;20453;-90
2021/04/06 21:46:25;;;;;;;10.33;4.90;;;0.40;99.90;;;-143.32;100.00;54279.09;5691091;23;20502;-88
2021/04/06 21:48:52;;;;;;;18.20;6.50;;;0.40;99.90;;;-143.32;100.00;54283.13;4995750;28;20956;-88
2021/04/06 21:56:30;;;;;;;12.90;6.53;;;0.50;99.90;;;-143.32;100.00;54242.72;5047390;23;20895;-90
2021/04/06 21:59:00;;;;;;;13.17;7.17;;;0.70;99.90;;;-143.32;100.00;54190.19;5015544;28;20478;-89
2021/04/06 22:01:27;;;;;;;11.33;7.30;;;0.60;99.90;;;-143.32;100.00;54226.56;5013780;28;20458;-90
2021/04/06 22:25:24;;;;;;;14.17;7.87;;;0.30;99.90;;;-143.32;100.00;54232.63;5507935;23;20981;-89
2021/04/06 22:30:33;;;;;;;21.53;8.57;;;0.20;99.90;;;-143.32;100.00;54210.41;6006566;23;20383;-91
2021/04/06 22:33:00;;;;;;;15.13;7.40;;;0.20;99.90;;;-143.32;100.00;54200.31;5014549;28;20468;-89
2021/04/06 22:35:29;;;;;;;12.40;7.10;;;0.10;99.90;;;-143.32;100.00;54184.13;5014257;28;20441;-90
2021/04/06 22:37:56;;;;;;;14.43;6.83;;;0.10;99.90;;;-143.32;100.00;54188.19;5014134;28;20446;-90
2021/04/06 22:40:24;;;;;;;13.40;6.30;;;0.10;99.90;;;-143.32;100.00;54125.56;5014116;28;20840;-92
2021/04/06 22:42:50;;;;;;;11.63;5.20;;;0.10;99.90;;;-143.32;100.00;54101.31;5013827;28;20446;-90
2021/04/06 22:45:20;;;;;;;18.03;5.30;;;0.10;99.90;;;-143.32;100.00;54113.44;5014091;28;20454;-88
2021/04/06 22:47:47;;;;;;;17.87;6.20;;;0.10;99.90;;;-143.32;100.00;54159.91;5014512;28;20442;-88
2021/04/06 22:50:18;;;;;;;20.77;5.70;;;0.10;99.90;;;-143.32;100.00;54105.34;5014216;28;20974;-90
2021/04/06 22:52:46;;;;;;;10.63;4.50;;;0.10;99.90;;;-143.32;100.00;54099.28;5014636;28;20868;-91
2021/04/06 22:55:20;;;;;;;15.70;5.10;;;0.20;99.90;;;-143.32;100.00;54046.78;5014009;28;20445;-91
2021/04/06 23:01:28;;;;;;;8.03;4.90;;;0.20;99.90;;;-143.32;100.00;54073.03;5421143;23;20509;-87
2021/04/06 23:16:56;;;;;;;22.90;5.03;;;0.10;99.90;;;-143.32;100.00;54115.47;5727914;23;20467;-89
2021/04/06 23:19:23;;;;;;;16.57;5.07;;;0.00;99.90;;;-143.32;100.00;54066.97;5037550;28;20795;-90
2021/04/06 23:21:50;;;;;;;18.10;6.47;;;0.20;99.90;;;-143.32;100.00;54044.75;5467333;22;21043;-92